METAR Data
IDs: Format: Raw Decoded Include TAF

Data at: 0225 UTC 24 Oct 2019

METAR for:KCCY (Charles City/NE Iowa, IA, US)
Text:KCCY 240215Z AUTO 29006KT 10SM OVC048 03/03 A3007 RMK AO2
Temperature: 3.0°C ( 37°F)
Dewpoint: 3.0°C ( 37°F) [RH = 100%]
Pressure (altimeter):30.07 inches Hg (1018.4 mb)
Winds:from the WNW (290 degrees) at 7 MPH (6 knots; 3.1 m/s)
Visibility:10 or more sm (16+ km)
Ceiling:4800 feet AGL
Clouds: overcast cloud deck at 4800 feet AGL
QC Flag:automated observation with no human augmentation